sensor_id;sensor_type;location;lat;lon;timestamp;P1;durP1;ratioP1;P2;durP2;ratioP2
19645;SDS011;9971;52.446;13.452;2023-05-31T00:02:14;1.60;;;1.50;;
19645;SDS011;9971;52.446;13.452;2023-05-31T00:07:32;1.87;;;1.40;;
19645;SDS011;9971;52.446;13.452;2023-05-31T00:12:36;3.37;;;1.90;;
19645;SDS011;9971;52.446;13.452;2023-05-31T00:17:44;2.67;;;2.03;;
19645;SDS011;9971;52.446;13.452;2023-05-31T00:22:52;5.70;;;2.37;;
19645;SDS011;9971;52.446;13.452;2023-05-31T00:27:57;3.00;;;2.17;;
19645;SDS011;9971;52.446;13.452;2023-05-31T00:33:03;2.42;;;1.98;;
19645;SDS011;9971;52.446;13.452;2023-05-31T00:38:19;3.62;;;1.80;;
19645;SDS011;9971;52.446;13.452;2023-05-31T00:43:25;3.23;;;1.90;;
19645;SDS011;9971;52.446;13.452;2023-05-31T00:48:43;1.97;;;1.70;;
19645;SDS011;9971;52.446;13.452;2023-05-31T00:54:01;2.63;;;1.90;;
19645;SDS011;9971;52.446;13.452;2023-05-31T01:15:31;2.08;;;1.62;;
19645;SDS011;9971;52.446;13.452;2023-05-31T01:20:39;2.20;;;1.60;;
19645;SDS011;9971;52.446;13.452;2023-05-31T01:31:11;1.93;;;1.40;;
19645;SDS011;9971;52.446;13.452;2023-05-31T01:36:14;2.93;;;1.50;;
19645;SDS011;9971;52.446;13.452;2023-05-31T01:41:20;2.17;;;1.57;;
19645;SDS011;9971;52.446;13.452;2023-05-31T01:46:22;4.28;;;1.75;;
19645;SDS011;9971;52.446;13.452;2023-05-31T01:51:26;2.30;;;1.40;;
19645;SDS011;9971;52.446;13.452;2023-05-31T01:56:35;2.83;;;1.60;;
19645;SDS011;9971;52.446;13.452;2023-05-31T02:18:02;2.67;;;1.55;;
19645;SDS011;9971;52.446;13.452;2023-05-31T02:23:05;2.50;;;2.17;;
19645;SDS011;9971;52.446;13.452;2023-05-31T02:28:10;3.30;;;2.00;;
19645;SDS011;9971;52.446;13.452;2023-05-31T02:33:15;2.70;;;1.93;;
19645;SDS011;9971;52.446;13.452;2023-05-31T02:38:20;2.30;;;1.80;;
19645;SDS011;9971;52.446;13.452;2023-05-31T02:43:22;2.05;;;1.62;;
19645;SDS011;9971;52.446;13.452;2023-05-31T02:48:26;2.13;;;1.80;;
19645;SDS011;9971;52.446;13.452;2023-05-31T02:53:30;2.63;;;1.40;;
19645;SDS011;9971;52.446;13.452;2023-05-31T02:58:41;2.47;;;2.00;;
19645;SDS011;9971;52.446;13.452;2023-05-31T03:03:45;3.07;;;1.70;;
19645;SDS011;9971;52.446;13.452;2023-05-31T03:08:55;3.23;;;1.93;;
19645;SDS011;9971;52.446;13.452;2023-05-31T03:14:00;2.33;;;1.93;;
19645;SDS011;9971;52.446;13.452;2023-05-31T03:19:03;3.73;;;1.90;;
19645;SDS011;9971;52.446;13.452;2023-05-31T03:24:07;4.47;;;2.60;;
19645;SDS011;9971;52.446;13.452;2023-05-31T03:29:16;2.37;;;1.72;;
19645;SDS011;9971;52.446;13.452;2023-05-31T03:34:21;6.50;;;2.17;;
19645;SDS011;9971;52.446;13.452;2023-05-31T03:39:26;4.83;;;2.27;;
19645;SDS011;9971;52.446;13.452;2023-05-31T03:44:32;4.17;;;2.10;;
19645;SDS011;9971;52.446;13.452;2023-05-31T03:49:38;3.47;;;2.40;;
19645;SDS011;9971;52.446;13.452;2023-05-31T03:54:42;2.30;;;1.83;;
19645;SDS011;9971;52.446;13.452;2023-05-31T03:59:48;2.27;;;1.90;;
19645;SDS011;9971;52.446;13.452;2023-05-31T04:04:58;3.43;;;2.20;;
19645;SDS011;9971;52.446;13.452;2023-05-31T04:10:24;2.47;;;2.00;;
19645;SDS011;9971;52.446;13.452;2023-05-31T04:15:35;2.70;;;1.90;;
19645;SDS011;9971;52.446;13.452;2023-05-31T04:20:43;2.50;;;2.20;;
19645;SDS011;9971;52.446;13.452;2023-05-31T04:25:47;2.20;;;1.82;;
19645;SDS011;9971;52.446;13.452;2023-05-31T04:30:50;3.93;;;2.00;;
19645;SDS011;9971;52.446;13.452;2023-05-31T04:35:53;2.30;;;1.57;;
19645;SDS011;9971;52.446;13.452;2023-05-31T04:40:56;4.43;;;1.80;;
19645;SDS011;9971;52.446;13.452;2023-05-31T04:45:57;3.47;;;2.03;;
19645;SDS011;9971;52.446;13.452;2023-05-31T04:51:00;4.35;;;2.15;;
19645;SDS011;9971;52.446;13.452;2023-05-31T04:56:02;4.67;;;2.03;;
19645;SDS011;9971;52.446;13.452;2023-05-31T05:01:05;3.72;;;2.12;;
19645;SDS011;9971;52.446;13.452;2023-05-31T05:06:12;2.23;;;1.60;;
19645;SDS011;9971;52.446;13.452;2023-05-31T05:11:13;2.43;;;1.80;;
19645;SDS011;9971;52.446;13.452;2023-05-31T05:16:16;4.07;;;1.67;;
19645;SDS011;9971;52.446;13.452;2023-05-31T05:21:18;2.75;;;2.22;;
19645;SDS011;9971;52.446;13.452;2023-05-31T05:26:20;3.40;;;1.90;;
19645;SDS011;9971;52.446;13.452;2023-05-31T05:31:28;4.58;;;1.98;;
19645;SDS011;9971;52.446;13.452;2023-05-31T05:36:49;2.53;;;1.70;;
19645;SDS011;9971;52.446;13.452;2023-05-31T05:42:01;3.50;;;1.60;;
19645;SDS011;9971;52.446;13.452;2023-05-31T05:47:12;3.43;;;1.70;;
19645;SDS011;9971;52.446;13.452;2023-05-31T05:52:15;2.10;;;1.60;;
19645;SDS011;9971;52.446;13.452;2023-05-31T06:18:44;3.33;;;1.72;;
19645;SDS011;9971;52.446;13.452;2023-05-31T06:23:50;2.85;;;1.47;;
19645;SDS011;9971;52.446;13.452;2023-05-31T06:28:59;2.57;;;1.70;;
19645;SDS011;9971;52.446;13.452;2023-05-31T06:34:07;1.83;;;1.63;;
19645;SDS011;9971;52.446;13.452;2023-05-31T06:39:12;3.53;;;1.77;;
19645;SDS011;9971;52.446;13.452;2023-05-31T06:44:20;3.80;;;1.90;;
19645;SDS011;9971;52.446;13.452;2023-05-31T06:49:22;4.80;;;1.70;;
19645;SDS011;9971;52.446;13.452;2023-05-31T06:54:25;3.87;;;1.87;;
19645;SDS011;9971;52.446;13.452;2023-05-31T06:59:28;6.53;;;2.50;;
19645;SDS011;9971;52.446;13.452;2023-05-31T07:04:32;1.30;;;0.93;;
19645;SDS011;9971;52.446;13.452;2023-05-31T07:09:35;0.47;;;0.47;;
19645;SDS011;9971;52.446;13.452;2023-05-31T07:14:38;0.50;;;0.50;;
19645;SDS011;9971;52.446;13.452;2023-05-31T07:19:42;0.35;;;0.20;;
19645;SDS011;9971;52.446;13.452;2023-05-31T07:24:44;0.33;;;0.33;;
19645;SDS011;9971;52.446;13.452;2023-05-31T07:29:47;0.30;;;0.30;;
19645;SDS011;9971;52.446;13.452;2023-05-31T07:34:49;0.20;;;0.20;;
19645;SDS011;9971;52.446;13.452;2023-05-31T07:39:52;1.22;;;0.70;;
19645;SDS011;9971;52.446;13.452;2023-05-31T07:44:54;0.67;;;0.67;;
19645;SDS011;9971;52.446;13.452;2023-05-31T07:49:57;1.20;;;1.10;;
19645;SDS011;9971;52.446;13.452;2023-05-31T07:54:59;2.87;;;1.30;;
19645;SDS011;9971;52.446;13.452;2023-05-31T08:00:03;1.70;;;1.30;;
19645;SDS011;9971;52.446;13.452;2023-05-31T08:05:07;3.17;;;1.33;;
19645;SDS011;9971;52.446;13.452;2023-05-31T08:10:11;1.67;;;1.20;;
19645;SDS011;9971;52.446;13.452;2023-05-31T08:15:14;1.42;;;1.10;;
19645;SDS011;9971;52.446;13.452;2023-05-31T08:20:18;2.37;;;1.52;;
19645;SDS011;9971;52.446;13.452;2023-05-31T08:25:21;3.40;;;1.63;;
19645;SDS011;9971;52.446;13.452;2023-05-31T08:30:23;1.35;;;1.20;;
19645;SDS011;9971;52.446;13.452;2023-05-31T08:35:26;1.98;;;1.10;;
19645;SDS011;9971;52.446;13.452;2023-05-31T08:40:31;1.50;;;1.40;;
19645;SDS011;9971;52.446;13.452;2023-05-31T08:45:37;1.40;;;1.20;;
19645;SDS011;9971;52.446;13.452;2023-05-31T08:50:39;1.43;;;1.33;;
19645;SDS011;9971;52.446;13.452;2023-05-31T08:55:42;3.37;;;1.55;;
19645;SDS011;9971;52.446;13.452;2023-05-31T09:00:46;3.77;;;1.47;;
19645;SDS011;9971;52.446;13.452;2023-05-31T09:22:01;2.30;;;1.33;;
19645;SDS011;9971;52.446;13.452;2023-05-31T09:27:20;1.53;;;1.23;;
19645;SDS011;9971;52.446;13.452;2023-05-31T09:59:29;1.87;;;1.10;;
19645;SDS011;9971;52.446;13.452;2023-05-31T10:04:32;2.70;;;1.05;;
19645;SDS011;9971;52.446;13.452;2023-05-31T10:09:37;1.67;;;1.55;;
19645;SDS011;9971;52.446;13.452;2023-05-31T10:14:39;2.40;;;1.23;;
19645;SDS011;9971;52.446;13.452;2023-05-31T10:19:43;3.27;;;1.03;;
19645;SDS011;9971;52.446;13.452;2023-05-31T10:46:16;1.90;;;1.22;;
19645;SDS011;9971;52.446;13.452;2023-05-31T10:56:53;0.97;;;0.97;;
19645;SDS011;9971;52.446;13.452;2023-05-31T11:01:57;2.10;;;1.10;;
19645;SDS011;9971;52.446;13.452;2023-05-31T11:07:10;1.15;;;0.98;;
19645;SDS011;9971;52.446;13.452;2023-05-31T11:12:15;0.98;;;0.95;;
19645;SDS011;9971;52.446;13.452;2023-05-31T11:17:16;2.22;;;1.07;;
19645;SDS011;9971;52.446;13.452;2023-05-31T11:22:21;1.37;;;1.20;;
19645;SDS011;9971;52.446;13.452;2023-05-31T11:27:21;1.30;;;1.00;;
19645;SDS011;9971;52.446;13.452;2023-05-31T11:32:54;1.07;;;1.00;;
19645;SDS011;9971;52.446;13.452;2023-05-31T11:38:01;1.45;;;1.10;;
19645;SDS011;9971;52.446;13.452;2023-05-31T11:43:03;1.15;;;1.05;;
19645;SDS011;9971;52.446;13.452;2023-05-31T11:48:15;3.07;;;1.10;;
19645;SDS011;9971;52.446;13.452;2023-05-31T11:53:35;0.50;;;0.50;;
19645;SDS011;9971;52.446;13.452;2023-05-31T11:58:45;1.13;;;1.03;;
19645;SDS011;9971;52.446;13.452;2023-05-31T12:03:58;1.27;;;1.17;;
19645;SDS011;9971;52.446;13.452;2023-05-31T12:09:02;1.20;;;0.80;;
19645;SDS011;9971;52.446;13.452;2023-05-31T12:14:05;0.40;;;0.40;;
19645;SDS011;9971;52.446;13.452;2023-05-31T12:19:11;2.10;;;0.95;;
19645;SDS011;9971;52.446;13.452;2023-05-31T12:24:15;0.73;;;0.73;;
19645;SDS011;9971;52.446;13.452;2023-05-31T12:29:18;1.23;;;0.97;;
19645;SDS011;9971;52.446;13.452;2023-05-31T12:34:27;0.70;;;0.70;;
19645;SDS011;9971;52.446;13.452;2023-05-31T12:39:36;1.00;;;0.90;;
19645;SDS011;9971;52.446;13.452;2023-05-31T12:44:37;1.52;;;0.95;;
19645;SDS011;9971;52.446;13.452;2023-05-31T12:49:40;1.05;;;0.50;;
19645;SDS011;9971;52.446;13.452;2023-05-31T12:54:42;1.00;;;0.90;;
19645;SDS011;9971;52.446;13.452;2023-05-31T12:59:44;0.98;;;0.70;;
19645;SDS011;9971;52.446;13.452;2023-05-31T13:04:48;0.57;;;0.53;;
19645;SDS011;9971;52.446;13.452;2023-05-31T13:09:57;0.80;;;0.80;;
19645;SDS011;9971;52.446;13.452;2023-05-31T13:15:03;0.93;;;0.77;;
19645;SDS011;9971;52.446;13.452;2023-05-31T13:20:07;0.70;;;0.70;;
19645;SDS011;9971;52.446;13.452;2023-05-31T13:25:09;1.45;;;0.53;;
19645;SDS011;9971;52.446;13.452;2023-05-31T13:30:11;0.70;;;0.70;;
19645;SDS011;9971;52.446;13.452;2023-05-31T13:35:14;1.70;;;0.65;;
19645;SDS011;9971;52.446;13.452;2023-05-31T13:40:16;0.70;;;0.70;;
19645;SDS011;9971;52.446;13.452;2023-05-31T13:45:19;0.47;;;0.47;;
19645;SDS011;9971;52.446;13.452;2023-05-31T13:50:37;2.03;;;0.80;;
19645;SDS011;9971;52.446;13.452;2023-05-31T13:55:39;0.80;;;0.80;;
19645;SDS011;9971;52.446;13.452;2023-05-31T14:00:44;1.50;;;0.73;;
19645;SDS011;9971;52.446;13.452;2023-05-31T14:05:50;0.90;;;0.85;;
19645;SDS011;9971;52.446;13.452;2023-05-31T14:10:52;1.10;;;0.95;;
19645;SDS011;9971;52.446;13.452;2023-05-31T14:15:55;0.80;;;0.70;;
19645;SDS011;9971;52.446;13.452;2023-05-31T14:20:58;0.80;;;0.80;;
19645;SDS011;9971;52.446;13.452;2023-05-31T14:31:21;0.53;;;0.53;;
19645;SDS011;9971;52.446;13.452;2023-05-31T14:52:38;1.27;;;1.17;;
19645;SDS011;9971;52.446;13.452;2023-05-31T14:57:47;1.30;;;0.70;;
19645;SDS011;9971;52.446;13.452;2023-05-31T15:46:02;0.70;;;0.70;;
19645;SDS011;9971;52.446;13.452;2023-05-31T16:12:47;0.40;;;0.40;;
19645;SDS011;9971;52.446;13.452;2023-05-31T16:17:49;0.20;;;0.20;;
19645;SDS011;9971;52.446;13.452;2023-05-31T16:22:52;1.07;;;0.63;;
19645;SDS011;9971;52.446;13.452;2023-05-31T16:28:07;0.70;;;0.70;;
19645;SDS011;9971;52.446;13.452;2023-05-31T17:21:25;1.30;;;1.20;;
19645;SDS011;9971;52.446;13.452;2023-05-31T17:26:29;0.80;;;0.80;;
19645;SDS011;9971;52.446;13.452;2023-05-31T17:31:32;0.75;;;0.75;;
19645;SDS011;9971;52.446;13.452;2023-05-31T17:36:35;0.90;;;0.80;;
19645;SDS011;9971;52.446;13.452;2023-05-31T17:41:37;0.60;;;0.60;;
19645;SDS011;9971;52.446;13.452;2023-05-31T17:46:40;0.72;;;0.72;;
19645;SDS011;9971;52.446;13.452;2023-05-31T17:51:42;1.12;;;0.85;;
19645;SDS011;9971;52.446;13.452;2023-05-31T17:56:45;0.95;;;0.93;;
19645;SDS011;9971;52.446;13.452;2023-05-31T18:01:54;1.00;;;0.93;;
19645;SDS011;9971;52.446;13.452;2023-05-31T18:06:58;0.47;;;0.47;;
19645;SDS011;9971;52.446;13.452;2023-05-31T18:12:02;0.47;;;0.47;;
19645;SDS011;9971;52.446;13.452;2023-05-31T18:17:06;0.80;;;0.80;;
19645;SDS011;9971;52.446;13.452;2023-05-31T18:22:09;0.37;;;0.37;;
19645;SDS011;9971;52.446;13.452;2023-05-31T18:27:13;0.40;;;0.40;;
19645;SDS011;9971;52.446;13.452;2023-05-31T18:48:18;0.23;;;0.23;;
19645;SDS011;9971;52.446;13.452;2023-05-31T18:53:21;0.17;;;0.17;;
19645;SDS011;9971;52.446;13.452;2023-05-31T18:58:23;0.10;;;0.10;;
19645;SDS011;9971;52.446;13.452;2023-05-31T19:03:26;0.03;;;0.03;;
19645;SDS011;9971;52.446;13.452;2023-05-31T19:08:29;0.13;;;0.10;;
19645;SDS011;9971;52.446;13.452;2023-05-31T19:13:32;0.05;;;0.05;;
19645;SDS011;9971;52.446;13.452;2023-05-31T19:18:38;0.13;;;0.13;;
19645;SDS011;9971;52.446;13.452;2023-05-31T19:23:42;0.10;;;0.08;;
19645;SDS011;9971;52.446;13.452;2023-05-31T19:28:47;0.00;;;0.00;;
19645;SDS011;9971;52.446;13.452;2023-05-31T19:33:48;0.00;;;0.00;;
19645;SDS011;9971;52.446;13.452;2023-05-31T19:38:51;0.00;;;0.00;;
19645;SDS011;9971;52.446;13.452;2023-05-31T19:43:54;0.03;;;0.03;;
19645;SDS011;9971;52.446;13.452;2023-05-31T19:48:57;0.03;;;0.03;;
19645;SDS011;9971;52.446;13.452;2023-05-31T19:54:00;0.00;;;0.00;;
19645;SDS011;9971;52.446;13.452;2023-05-31T19:59:03;0.00;;;0.00;;
19645;SDS011;9971;52.446;13.452;2023-05-31T20:04:09;0.00;;;0.00;;
19645;SDS011;9971;52.446;13.452;2023-05-31T20:09:11;0.00;;;0.00;;
19645;SDS011;9971;52.446;13.452;2023-05-31T20:14:15;0.10;;;0.10;;
19645;SDS011;9971;52.446;13.452;2023-05-31T20:19:20;0.00;;;0.00;;
19645;SDS011;9971;52.446;13.452;2023-05-31T20:24:23;0.00;;;0.00;;
19645;SDS011;9971;52.446;13.452;2023-05-31T20:29:29;0.10;;;0.10;;
19645;SDS011;9971;52.446;13.452;2023-05-31T20:34:32;0.00;;;0.00;;
19645;SDS011;9971;52.446;13.452;2023-05-31T20:39:35;0.00;;;0.00;;
19645;SDS011;9971;52.446;13.452;2023-05-31T20:44:49;0.10;;;0.10;;
19645;SDS011;9971;52.446;13.452;2023-05-31T20:49:54;0.10;;;0.10;;
19645;SDS011;9971;52.446;13.452;2023-05-31T20:55:15;0.20;;;0.20;;
19645;SDS011;9971;52.446;13.452;2023-05-31T21:00:18;0.30;;;0.25;;
19645;SDS011;9971;52.446;13.452;2023-05-31T21:05:22;0.10;;;0.10;;
19645;SDS011;9971;52.446;13.452;2023-05-31T21:10:24;0.23;;;0.23;;
19645;SDS011;9971;52.446;13.452;2023-05-31T21:15:27;0.20;;;0.17;;
19645;SDS011;9971;52.446;13.452;2023-05-31T21:20:29;0.10;;;0.10;;
19645;SDS011;9971;52.446;13.452;2023-05-31T21:25:33;0.30;;;0.30;;
19645;SDS011;9971;52.446;13.452;2023-05-31T21:46:41;0.28;;;0.28;;
19645;SDS011;9971;52.446;13.452;2023-05-31T21:51:43;0.20;;;0.20;;
19645;SDS011;9971;52.446;13.452;2023-05-31T21:56:47;0.35;;;0.35;;
19645;SDS011;9971;52.446;13.452;2023-05-31T22:23:21;0.10;;;0.10;;
19645;SDS011;9971;52.446;13.452;2023-05-31T22:33:43;0.20;;;0.20;;
19645;SDS011;9971;52.446;13.452;2023-05-31T22:54:52;0.30;;;0.30;;
19645;SDS011;9971;52.446;13.452;2023-05-31T22:59:55;0.33;;;0.30;;
19645;SDS011;9971;52.446;13.452;2023-05-31T23:05:01;0.20;;;0.20;;
19645;SDS011;9971;52.446;13.452;2023-05-31T23:10:04;0.25;;;0.25;;
19645;SDS011;9971;52.446;13.452;2023-05-31T23:15:13;0.47;;;0.47;;
19645;SDS011;9971;52.446;13.452;2023-05-31T23:20:17;0.20;;;0.20;;
19645;SDS011;9971;52.446;13.452;2023-05-31T23:25:19;0.23;;;0.23;;
19645;SDS011;9971;52.446;13.452;2023-05-31T23:30:23;0.10;;;0.10;;
19645;SDS011;9971;52.446;13.452;2023-05-31T23:35:26;0.10;;;0.10;;
19645;SDS011;9971;52.446;13.452;2023-05-31T23:40:28;0.10;;;0.10;;
19645;SDS011;9971;52.446;13.452;2023-05-31T23:45:31;0.50;;;0.50;;
19645;SDS011;9971;52.446;13.452;2023-05-31T23:50:36;1.10;;;1.00;;
19645;SDS011;9971;52.446;13.452;2023-05-31T23:55:40;0.82;;;0.80;;
